Berriz, Spain
Current Conditions -  °F | °C
As of 11:30 PM on Sunday 23 Nov 2014 (Local Time) from LEBB Reporting Station
Broken Clouds Broken Clouds  
Wind Chill: 61°   Ceiling: 5000
Heat Index: 61°   Visibility: 6mi
Dew Point: 59°   Wind: 0mph
Humidity: 94%   Direction: NA
Pressure: 30"   Gusts: NA
Location:  43.17°N, 2.57°W
Report Text: LEBB 232230Z 00000KT 9999 SCT022 SCT031 BKN050 16/15 Q1016 NOSIG
Loading
Personal Weather Stations






























Interactive Weather Map New forecast layout! Learn more

10-Day Weather Forecast

Advertisements
Track Severe Weather on mobile